createdAt,value
2022-12-20T00:01:54.828Z,98.55
2022-12-20T00:04:22.884Z,98.05
2022-12-20T00:06:52.321Z,98.02
2022-12-20T00:09:20.365Z,98.10
2022-12-20T00:11:48.347Z,97.98
2022-12-20T00:14:16.253Z,97.93
2022-12-20T00:16:44.484Z,97.77
2022-12-20T00:19:14.355Z,97.30
2022-12-20T00:21:42.407Z,97.28
2022-12-20T00:24:13.128Z,97.09
2022-12-20T00:26:41.089Z,97.13
2022-12-20T00:29:09.095Z,97.12
2022-12-20T00:31:37.244Z,96.95
2022-12-20T00:34:05.358Z,96.38
2022-12-20T00:36:34.421Z,96.74
2022-12-20T00:39:03.849Z,96.91
2022-12-20T00:41:34.953Z,96.87
2022-12-20T00:44:03.371Z,96.59
2022-12-20T00:46:33.135Z,96.78
2022-12-20T00:49:01.348Z,97.00
2022-12-20T00:51:32.669Z,96.84
2022-12-20T00:54:00.875Z,96.83
2022-12-20T00:56:28.802Z,96.74
2022-12-20T00:59:00.090Z,96.57
2022-12-20T01:01:30.442Z,96.79
2022-12-20T01:03:59.485Z,96.98
2022-12-20T01:06:28.039Z,97.09
2022-12-20T01:08:56.587Z,97.09
2022-12-20T01:11:26.034Z,97.23
2022-12-20T01:13:56.908Z,97.06
2022-12-20T01:16:28.583Z,96.78
2022-12-20T01:18:56.565Z,97.19
2022-12-20T01:21:27.259Z,96.92
2022-12-20T01:23:56.461Z,96.63
2022-12-20T01:26:26.924Z,97.10
2022-12-20T01:28:56.736Z,97.48
2022-12-20T01:31:26.508Z,96.97
2022-12-20T01:33:54.474Z,97.25
2022-12-20T01:36:25.259Z,96.53
2022-12-20T01:38:57.531Z,96.66
2022-12-20T01:41:25.881Z,96.63
2022-12-20T01:43:55.988Z,96.53
2022-12-20T01:46:27.341Z,96.33
2022-12-20T01:49:00.123Z,96.66
2022-12-20T01:51:30.643Z,96.62
2022-12-20T01:54:02.983Z,96.67
2022-12-20T01:56:31.000Z,96.38
2022-12-20T01:58:59.772Z,96.34
2022-12-20T02:01:29.311Z,96.00
2022-12-20T02:03:57.554Z,95.82
2022-12-20T02:06:27.896Z,95.34
2022-12-20T02:08:59.294Z,95.72
2022-12-20T02:11:50.507Z,95.18
2022-12-20T02:14:43.801Z,95.01
2022-12-20T02:17:25.677Z,95.59
2022-12-20T02:20:23.283Z,95.52
2022-12-20T02:23:10.691Z,95.67
2022-12-20T02:25:47.617Z,96.14
2022-12-20T02:28:33.915Z,96.03
2022-12-20T02:31:11.848Z,96.13
2022-12-20T02:33:43.376Z,96.11
2022-12-20T02:36:11.433Z,96.38
2022-12-20T02:38:39.876Z,96.60
2022-12-20T02:41:12.341Z,96.91
2022-12-20T02:44:01.790Z,96.79
2022-12-20T02:46:33.940Z,97.65
2022-12-20T02:49:08.032Z,97.82
2022-12-20T02:51:36.268Z,97.79
2022-12-20T02:54:05.113Z,98.26
2022-12-20T02:56:37.370Z,97.76
2022-12-20T02:59:11.447Z,97.91
2022-12-20T03:01:46.330Z,98.42
2022-12-20T03:04:15.680Z,99.50
2022-12-20T03:06:58.298Z,99.53
2022-12-20T03:09:26.309Z,99.99
2022-12-20T03:11:55.037Z,100.00
2022-12-20T03:14:23.143Z,100.00
2022-12-20T03:16:52.602Z,100.00
2022-12-20T03:19:20.927Z,100.00
2022-12-20T03:21:48.961Z,100.00
2022-12-20T03:24:17.304Z,100.00
2022-12-20T03:26:45.774Z,100.00
2022-12-20T03:29:14.043Z,100.00
2022-12-20T03:31:41.953Z,100.00
2022-12-20T03:34:11.311Z,100.00
2022-12-20T03:36:39.420Z,100.00
2022-12-20T03:39:07.464Z,100.00
2022-12-20T03:41:35.406Z,100.00
2022-12-20T03:44:03.316Z,100.00
2022-12-20T03:46:31.999Z,100.00
2022-12-20T03:49:00.502Z,100.00
2022-12-20T03:51:29.827Z,100.00
2022-12-20T03:53:57.871Z,100.00
2022-12-20T03:56:25.792Z,100.00
2022-12-20T03:58:53.857Z,100.00
2022-12-20T04:01:24.532Z,100.00
2022-12-20T04:03:52.744Z,100.00
2022-12-20T04:06:21.431Z,100.00
2022-12-20T04:08:51.199Z,100.00
2022-12-20T04:11:19.306Z,100.00
2022-12-20T04:13:48.554Z,100.00
2022-12-20T04:16:18.610Z,100.00
2022-12-20T04:18:46.724Z,100.00
2022-12-20T04:21:15.641Z,100.00
2022-12-20T04:23:44.572Z,100.00
2022-12-20T04:26:14.421Z,100.00
2022-12-20T04:28:42.359Z,100.00
2022-12-20T04:31:10.707Z,100.00
2022-12-20T04:33:39.063Z,100.00
2022-12-20T04:36:07.781Z,100.00
2022-12-20T04:38:35.833Z,100.00
2022-12-20T04:41:03.803Z,100.00
2022-12-20T04:43:33.123Z,100.00
2022-12-20T04:46:01.240Z,100.00
2022-12-20T04:51:17.813Z,100.00
2022-12-20T04:53:48.555Z,100.00
2022-12-20T04:56:19.395Z,100.00
2022-12-20T04:58:50.071Z,100.00
2022-12-20T05:01:18.697Z,100.00
2022-12-20T05:03:46.793Z,100.00
2022-12-20T05:06:15.678Z,100.00
2022-12-20T05:08:43.633Z,100.00
2022-12-20T05:11:11.687Z,100.00
2022-12-20T05:13:39.639Z,100.00
2022-12-20T05:16:09.379Z,100.00
2022-12-20T05:18:40.544Z,100.00
2022-12-20T05:21:28.391Z,100.00
2022-12-20T05:24:13.710Z,100.00
2022-12-20T05:26:42.249Z,100.00
2022-12-20T05:29:10.266Z,100.00
2022-12-20T05:31:39.669Z,100.00
2022-12-20T05:34:07.819Z,100.00
2022-12-20T05:36:35.713Z,100.00
2022-12-20T05:39:04.743Z,100.00
2022-12-20T05:41:33.220Z,100.00
2022-12-20T05:44:02.030Z,100.00
2022-12-20T05:46:29.923Z,100.00
2022-12-20T05:48:59.314Z,100.00
2022-12-20T05:51:27.259Z,100.00
2022-12-20T05:53:55.137Z,100.00
2022-12-20T05:56:23.183Z,100.00
2022-12-20T05:58:51.237Z,100.00
2022-12-20T06:01:19.549Z,100.00
2022-12-20T06:03:47.790Z,100.00
2022-12-20T06:06:17.160Z,100.00
2022-12-20T06:08:45.089Z,100.00
2022-12-20T06:11:13.129Z,100.00
2022-12-20T06:13:41.144Z,100.00
2022-12-20T06:16:09.149Z,100.00
2022-12-20T06:18:37.159Z,100.00
2022-12-20T06:21:05.254Z,100.00
2022-12-20T06:23:34.665Z,100.00
2022-12-20T06:26:04.339Z,100.00
2022-12-20T06:28:32.499Z,100.00
2022-12-20T06:31:00.433Z,100.00
2022-12-20T06:33:28.312Z,100.00
2022-12-20T06:35:56.213Z,100.00
2022-12-20T06:38:24.210Z,100.00
2022-12-20T06:40:53.698Z,100.00
2022-12-20T06:43:21.635Z,100.00
2022-12-20T06:45:49.653Z,100.00
2022-12-20T06:48:17.706Z,100.00
2022-12-20T06:50:48.067Z,100.00
2022-12-20T06:53:20.120Z,100.00
2022-12-20T06:55:50.239Z,100.00
2022-12-20T06:58:19.994Z,100.00
2022-12-20T07:00:48.175Z,100.00
2022-12-20T07:03:16.739Z,100.00
2022-12-20T07:05:44.943Z,100.00
2022-12-20T07:08:12.784Z,100.00
2022-12-20T07:10:40.662Z,100.00
2022-12-20T07:13:09.236Z,100.00
2022-12-20T07:15:38.628Z,100.00
2022-12-20T07:18:06.981Z,100.00
2022-12-20T07:20:34.987Z,100.00
2022-12-20T07:23:02.960Z,100.00
2022-12-20T07:25:31.022Z,100.00
2022-12-20T07:27:58.959Z,100.00
2022-12-20T07:30:26.874Z,100.00
2022-12-20T07:32:56.210Z,100.00
2022-12-20T07:35:24.404Z,100.00
2022-12-20T07:37:54.140Z,100.00
2022-12-20T07:40:22.409Z,100.00
2022-12-20T07:42:50.682Z,100.00
2022-12-20T07:45:18.913Z,100.00
2022-12-20T07:47:46.875Z,100.00
2022-12-20T07:50:16.238Z,100.00
2022-12-20T07:52:47.901Z,100.00
2022-12-20T07:55:16.301Z,100.00
2022-12-20T07:57:48.818Z,100.00
2022-12-20T08:00:18.825Z,100.00
2022-12-20T08:02:52.507Z,100.00
2022-12-20T08:05:22.577Z,100.00
2022-12-20T08:07:56.800Z,100.00
2022-12-20T08:10:27.733Z,100.00
2022-12-20T08:12:56.729Z,100.00
2022-12-20T08:15:25.435Z,100.00
2022-12-20T08:17:53.452Z,100.00
2022-12-20T08:20:22.999Z,100.00
2022-12-20T08:22:50.953Z,100.00
2022-12-20T08:25:19.396Z,100.00
2022-12-20T08:27:47.289Z,100.00
2022-12-20T08:30:15.909Z,100.00
2022-12-20T08:32:43.986Z,100.00
2022-12-20T08:35:13.091Z,100.00
2022-12-20T08:37:42.441Z,100.00
2022-12-20T08:40:11.449Z,100.00
2022-12-20T08:42:39.492Z,100.00
2022-12-20T08:45:08.220Z,100.00
2022-12-20T08:47:36.074Z,100.00
2022-12-20T08:50:03.891Z,100.00
2022-12-20T08:52:31.884Z,100.00
2022-12-20T08:55:02.021Z,100.00
2022-12-20T08:57:30.382Z,100.00
2022-12-20T08:59:58.222Z,100.00
2022-12-20T09:02:26.301Z,100.00
2022-12-20T09:04:54.291Z,100.00
2022-12-20T09:07:22.102Z,100.00
2022-12-20T09:09:49.984Z,100.00
2022-12-20T09:12:19.212Z,100.00
2022-12-20T09:14:47.421Z,100.00
2022-12-20T09:17:15.287Z,100.00
2022-12-20T09:19:43.143Z,100.00
2022-12-20T09:22:11.086Z,100.00
2022-12-20T09:24:39.156Z,100.00
2022-12-20T09:27:07.024Z,99.97
2022-12-20T09:29:36.313Z,99.47
2022-12-20T09:32:04.472Z,99.56
2022-12-20T09:34:32.432Z,99.86
2022-12-20T09:37:00.282Z,100.00
2022-12-20T09:39:28.134Z,99.72
2022-12-20T09:41:56.064Z,99.84
2022-12-20T09:44:28.139Z,99.94
2022-12-20T09:47:06.442Z,100.00
2022-12-20T09:49:42.760Z,99.87
2022-12-20T09:52:31.810Z,100.00
2022-12-20T09:55:14.855Z,100.00
2022-12-20T09:57:55.534Z,100.00
2022-12-20T10:00:23.774Z,100.00
2022-12-20T10:03:04.210Z,100.00
2022-12-20T10:05:42.223Z,100.00
2022-12-20T10:08:24.373Z,100.00
2022-12-20T10:10:57.864Z,100.00
2022-12-20T10:13:48.703Z,100.00
2022-12-20T10:16:33.736Z,100.00
2022-12-20T10:19:17.101Z,100.00
2022-12-20T10:21:51.158Z,100.00
2022-12-20T10:24:21.525Z,100.00
2022-12-20T10:26:51.784Z,100.00
2022-12-20T10:29:21.249Z,100.00
2022-12-20T10:31:51.778Z,100.00
2022-12-20T10:34:21.087Z,100.00
2022-12-20T10:36:52.491Z,100.00
2022-12-20T10:39:41.985Z,100.00
2022-12-20T10:42:26.281Z,100.00
2022-12-20T10:44:54.930Z,100.00
2022-12-20T10:47:31.117Z,100.00
2022-12-20T10:50:10.997Z,100.00
2022-12-20T10:52:39.003Z,100.00
2022-12-20T10:55:36.850Z,100.00
2022-12-20T10:58:06.639Z,100.00
2022-12-20T11:00:34.749Z,100.00
2022-12-20T11:03:16.167Z,99.99
2022-12-20T11:05:57.710Z,100.00
2022-12-20T11:08:40.445Z,100.00
2022-12-20T11:11:19.196Z,100.00
2022-12-20T11:13:47.914Z,100.00
2022-12-20T11:16:36.457Z,100.00
2022-12-20T11:19:17.684Z,100.00
2022-12-20T11:21:53.495Z,100.00
2022-12-20T11:24:30.808Z,100.00
2022-12-20T11:27:15.407Z,100.00
2022-12-20T11:30:06.940Z,99.99
2022-12-20T11:32:51.071Z,100.00
2022-12-20T11:35:23.548Z,99.76
2022-12-20T11:38:09.256Z,99.86
2022-12-20T11:40:45.201Z,100.00
2022-12-20T11:43:39.064Z,100.00
2022-12-20T11:46:31.870Z,100.00
2022-12-20T11:49:15.768Z,99.95
2022-12-20T11:51:47.995Z,99.62
2022-12-20T11:54:23.072Z,99.88
2022-12-20T11:56:56.407Z,99.70
2022-12-20T11:59:38.733Z,99.94
2022-12-20T12:02:12.590Z,99.85
2022-12-20T12:04:45.131Z,100.00
2022-12-20T12:07:17.631Z,99.81
2022-12-20T12:09:56.534Z,99.83
2022-12-20T12:12:28.191Z,99.91
2022-12-20T12:15:02.278Z,99.59
2022-12-20T12:17:39.563Z,99.20
2022-12-20T12:20:23.821Z,99.14
2022-12-20T12:22:58.982Z,98.83
2022-12-20T12:25:28.568Z,98.77
2022-12-20T12:27:56.444Z,98.67
2022-12-20T12:30:26.859Z,98.65
2022-12-20T12:32:59.685Z,97.62
2022-12-20T12:35:51.660Z,97.36
2022-12-20T12:39:02.391Z,97.65
2022-12-20T12:42:03.245Z,97.21
2022-12-20T12:44:41.786Z,97.35
2022-12-20T12:47:18.412Z,97.42
2022-12-20T12:49:50.505Z,97.51
2022-12-20T12:52:46.203Z,97.23
2022-12-20T12:55:43.745Z,97.70
2022-12-20T12:58:46.460Z,98.36
2022-12-20T13:01:52.070Z,99.45
2022-12-20T13:04:52.735Z,99.90
2022-12-20T13:07:30.386Z,100.00
2022-12-20T13:09:58.253Z,100.00
2022-12-20T13:12:59.989Z,100.00
2022-12-20T13:16:14.240Z,100.00
2022-12-20T13:21:39.832Z,100.00
2022-12-20T13:24:56.334Z,100.00
2022-12-20T13:27:33.737Z,100.00
2022-12-20T13:30:18.883Z,100.00
2022-12-20T13:33:23.954Z,100.00
2022-12-20T13:36:01.555Z,100.00
2022-12-20T13:38:52.880Z,100.00
2022-12-20T13:41:34.776Z,100.00
2022-12-20T13:44:19.713Z,100.00
2022-12-20T13:46:53.610Z,100.00
2022-12-20T13:49:26.810Z,100.00
2022-12-20T13:52:15.642Z,100.00
2022-12-20T13:54:47.282Z,100.00
2022-12-20T13:57:17.492Z,100.00
2022-12-20T13:59:48.427Z,100.00
2022-12-20T14:02:21.480Z,100.00
2022-12-20T14:04:59.405Z,100.00
2022-12-20T14:07:29.564Z,100.00
2022-12-20T14:10:01.101Z,100.00
2022-12-20T14:12:36.524Z,100.00
2022-12-20T14:15:23.519Z,100.00
2022-12-20T14:17:51.421Z,100.00
2022-12-20T14:20:24.594Z,100.00
2022-12-20T14:23:04.310Z,100.00
2022-12-20T14:25:39.277Z,100.00
2022-12-20T14:28:21.560Z,100.00
2022-12-20T14:30:55.323Z,100.00
2022-12-20T14:33:30.374Z,100.00
2022-12-20T14:35:59.982Z,100.00
2022-12-20T14:38:31.711Z,100.00
2022-12-20T14:41:01.089Z,100.00
2022-12-20T14:43:33.698Z,100.00
2022-12-20T14:46:09.826Z,100.00
2022-12-20T14:48:37.931Z,100.00
2022-12-20T14:51:06.844Z,100.00
2022-12-20T14:53:36.143Z,100.00
2022-12-20T14:56:07.334Z,100.00
2022-12-20T14:58:36.075Z,100.00
2022-12-20T15:01:20.646Z,100.00
2022-12-20T15:03:52.925Z,100.00
2022-12-20T15:06:35.864Z,100.00
2022-12-20T15:09:05.423Z,100.00
2022-12-20T15:11:36.536Z,100.00
2022-12-20T15:14:14.065Z,100.00
2022-12-20T15:16:48.504Z,100.00
2022-12-20T15:19:16.520Z,100.00
2022-12-20T15:21:45.766Z,100.00
2022-12-20T15:24:15.445Z,100.00
2022-12-20T15:26:44.664Z,100.00
2022-12-20T15:29:18.063Z,100.00
2022-12-20T15:31:47.466Z,100.00
2022-12-20T15:34:20.128Z,100.00
2022-12-20T15:36:48.041Z,100.00
2022-12-20T15:39:16.028Z,100.00
2022-12-20T15:41:48.308Z,100.00
2022-12-20T15:44:18.993Z,100.00
2022-12-20T15:46:47.365Z,100.00
2022-12-20T15:49:17.028Z,100.00
2022-12-20T15:51:53.820Z,100.00
2022-12-20T15:54:27.562Z,100.00
2022-12-20T15:56:57.805Z,100.00
2022-12-20T15:59:59.021Z,100.00
2022-12-20T16:02:22.601Z,100.00
2022-12-20T16:04:50.737Z,100.00
2022-12-20T16:07:18.599Z,100.00
2022-12-20T16:09:46.941Z,100.00
2022-12-20T16:12:18.845Z,100.00
2022-12-20T16:14:46.750Z,100.00
2022-12-20T16:17:15.268Z,100.00
2022-12-20T16:19:43.445Z,100.00
2022-12-20T16:22:16.039Z,100.00
2022-12-20T16:24:44.743Z,100.00
2022-12-20T16:27:12.684Z,100.00
2022-12-20T16:29:42.321Z,100.00
2022-12-20T16:32:15.777Z,100.00
2022-12-20T16:34:43.805Z,100.00
2022-12-20T16:37:12.851Z,100.00
2022-12-20T16:39:40.893Z,100.00
2022-12-20T16:42:14.873Z,100.00
2022-12-20T16:44:45.538Z,100.00
2022-12-20T16:47:14.583Z,100.00
2022-12-20T16:49:51.175Z,100.00
2022-12-20T16:52:21.249Z,100.00
2022-12-20T16:54:49.661Z,100.00
2022-12-20T16:57:17.603Z,100.00
2022-12-20T16:59:46.937Z,100.00
2022-12-20T17:02:25.131Z,100.00
2022-12-20T17:04:53.192Z,100.00
2022-12-20T17:07:21.241Z,100.00
2022-12-20T17:09:49.289Z,100.00
2022-12-20T17:12:18.839Z,100.00
2022-12-20T17:14:48.960Z,100.00
2022-12-20T17:17:17.432Z,100.00
2022-12-20T17:19:45.413Z,100.00
2022-12-20T17:24:59.809Z,100.00
2022-12-20T17:27:27.747Z,100.00
2022-12-20T17:29:57.097Z,100.00
2022-12-20T17:32:26.610Z,100.00
2022-12-20T17:34:55.194Z,100.00
2022-12-20T17:37:24.673Z,100.00
2022-12-20T17:39:52.599Z,100.00
2022-12-20T17:42:23.241Z,100.00
2022-12-20T17:44:56.359Z,100.00
2022-12-20T17:47:24.295Z,100.00
2022-12-20T17:49:53.323Z,100.00
2022-12-20T17:52:21.714Z,100.00
2022-12-20T17:54:49.813Z,100.00
2022-12-20T17:57:18.015Z,100.00
2022-12-20T17:59:47.021Z,100.00
2022-12-20T18:02:22.624Z,100.00
2022-12-20T18:04:51.087Z,100.00
2022-12-20T18:07:19.103Z,100.00
2022-12-20T18:09:49.188Z,100.00
2022-12-20T18:12:17.431Z,100.00
2022-12-20T18:14:45.621Z,100.00
2022-12-20T18:17:13.744Z,100.00
2022-12-20T18:19:44.107Z,100.00
2022-12-20T18:22:12.181Z,100.00
2022-12-20T18:24:40.053Z,100.00
2022-12-20T18:27:08.006Z,100.00
2022-12-20T18:29:36.087Z,100.00
2022-12-20T18:32:04.290Z,100.00
2022-12-20T18:34:32.483Z,100.00
2022-12-20T18:37:02.120Z,100.00
2022-12-20T18:39:30.044Z,100.00
2022-12-20T18:41:58.004Z,100.00
2022-12-20T18:44:26.019Z,100.00
2022-12-20T18:46:53.877Z,100.00
2022-12-20T18:49:21.716Z,100.00
2022-12-20T18:51:49.721Z,100.00
2022-12-20T18:54:18.900Z,100.00
2022-12-20T18:56:46.751Z,100.00
2022-12-20T18:59:14.641Z,100.00
2022-12-20T19:01:43.701Z,100.00
2022-12-20T19:04:12.868Z,100.00
2022-12-20T19:06:41.069Z,100.00
2022-12-20T19:09:13.106Z,100.00
2022-12-20T19:11:42.910Z,100.00
2022-12-20T19:14:12.814Z,100.00
2022-12-20T19:16:40.864Z,100.00
2022-12-20T19:19:09.628Z,100.00
2022-12-20T19:21:39.267Z,100.00
2022-12-20T19:24:09.638Z,100.00
2022-12-20T19:26:39.039Z,100.00
2022-12-20T19:29:08.858Z,100.00
2022-12-20T19:31:38.436Z,100.00
2022-12-20T19:34:08.479Z,100.00
2022-12-20T19:36:38.184Z,100.00
2022-12-20T19:39:08.440Z,100.00
2022-12-20T19:41:36.792Z,100.00
2022-12-20T19:44:06.251Z,100.00
2022-12-20T19:46:36.240Z,100.00
2022-12-20T19:49:04.563Z,100.00
2022-12-20T19:51:32.519Z,100.00
2022-12-20T19:54:00.690Z,100.00
2022-12-20T19:56:30.360Z,100.00
2022-12-20T19:58:58.615Z,100.00
2022-12-20T20:01:27.804Z,100.00
2022-12-20T20:03:59.360Z,100.00
2022-12-20T20:06:28.065Z,100.00
2022-12-20T20:08:59.637Z,100.00
2022-12-20T20:11:29.663Z,100.00
2022-12-20T20:13:57.873Z,100.00
2022-12-20T20:16:26.186Z,100.00
2022-12-20T20:18:54.088Z,100.00
2022-12-20T20:21:24.398Z,100.00
2022-12-20T20:23:54.425Z,100.00
2022-12-20T20:26:24.906Z,100.00
2022-12-20T20:28:54.159Z,100.00
2022-12-20T20:31:23.220Z,100.00
2022-12-20T20:33:51.998Z,100.00
2022-12-20T20:36:21.847Z,100.00
2022-12-20T20:38:52.247Z,100.00
2022-12-20T20:41:20.118Z,100.00
2022-12-20T20:43:48.279Z,100.00
2022-12-20T20:46:18.252Z,100.00
2022-12-20T20:48:46.466Z,100.00
2022-12-20T20:51:14.443Z,100.00
2022-12-20T20:53:42.767Z,100.00
2022-12-20T20:56:12.209Z,100.00
2022-12-20T20:58:40.145Z,100.00
2022-12-20T21:01:09.643Z,100.00
2022-12-20T21:03:38.834Z,100.00
2022-12-20T21:08:56.290Z,100.00
2022-12-20T21:11:26.003Z,100.00
2022-12-20T21:13:54.813Z,100.00
2022-12-20T21:16:22.926Z,100.00
2022-12-20T21:18:52.426Z,100.00
2022-12-20T21:21:20.908Z,100.00
2022-12-20T21:23:49.456Z,100.00
2022-12-20T21:26:18.711Z,100.00
2022-12-20T21:28:48.277Z,100.00
2022-12-20T21:31:18.651Z,100.00
2022-12-20T21:33:47.060Z,100.00
2022-12-20T21:36:17.815Z,100.00
2022-12-20T21:38:50.433Z,100.00
2022-12-20T21:41:20.072Z,100.00
2022-12-20T21:43:49.609Z,100.00
2022-12-20T21:46:17.906Z,100.00
2022-12-20T21:48:47.120Z,100.00
2022-12-20T21:51:16.909Z,100.00
2022-12-20T21:53:46.638Z,100.00
2022-12-20T21:56:16.042Z,100.00
2022-12-20T21:58:45.204Z,100.00
2022-12-20T22:01:17.078Z,100.00
2022-12-20T22:03:45.613Z,100.00
2022-12-20T22:06:13.590Z,100.00
2022-12-20T22:08:41.739Z,100.00
2022-12-20T22:11:11.460Z,100.00
2022-12-20T22:13:41.894Z,100.00
2022-12-20T22:16:12.701Z,100.00
2022-12-20T22:18:43.106Z,100.00
2022-12-20T22:21:12.433Z,100.00
2022-12-20T22:23:40.938Z,100.00
2022-12-20T22:26:10.777Z,100.00
2022-12-20T22:28:39.236Z,100.00
2022-12-20T22:31:09.716Z,100.00
2022-12-20T22:33:38.837Z,100.00
2022-12-20T22:36:10.456Z,100.00
2022-12-20T22:38:38.313Z,100.00
2022-12-20T22:41:10.553Z,100.00
2022-12-20T22:43:38.980Z,100.00
2022-12-20T22:46:07.184Z,100.00
2022-12-20T22:48:35.457Z,100.00
2022-12-20T22:51:05.175Z,100.00
2022-12-20T22:53:35.180Z,100.00
2022-12-20T22:56:03.643Z,100.00
2022-12-20T22:58:32.575Z,100.00
2022-12-20T23:01:02.217Z,100.00
2022-12-20T23:03:31.780Z,100.00
2022-12-20T23:06:01.900Z,100.00
2022-12-20T23:08:31.538Z,100.00
2022-12-20T23:11:18.271Z,100.00
2022-12-20T23:14:03.647Z,100.00
2022-12-20T23:16:32.110Z,100.00
2022-12-20T23:19:02.731Z,100.00
2022-12-20T23:21:48.712Z,100.00
2022-12-20T23:24:16.901Z,100.00
2022-12-20T23:26:46.187Z,100.00
2022-12-20T23:29:14.544Z,100.00
2022-12-20T23:31:42.547Z,100.00
2022-12-20T23:34:10.447Z,100.00
2022-12-20T23:36:38.558Z,100.00
2022-12-20T23:39:06.721Z,100.00
2022-12-20T23:41:34.724Z,100.00
2022-12-20T23:44:06.350Z,100.00
2022-12-20T23:46:35.009Z,100.00
2022-12-20T23:49:02.886Z,100.00
2022-12-20T23:51:30.697Z,100.00
2022-12-20T23:53:58.760Z,100.00
2022-12-20T23:56:26.953Z,100.00
2022-12-20T23:58:56.331Z,100.00
